Cambridge, United Kingdom
Current Conditions -  °F | °C
As of 6:50 PM on Monday 22 Dec 2014 (Local Time) from EGSC Reporting Station
Few Clouds Few Clouds  
Wind Chill: 52°   Ceiling: Unl
Heat Index: 52°   Visibility: 6mi
Dew Point: 45°   Wind: 24mph
Humidity: 76%   Direction: 220°SW
Pressure: 29.97"   Gusts: 36mph
Location:  52.2°N, 0.13°E
Report Text: EGSC 221850Z 22021G31KT 200V260 9999 FEW028 11/07 Q1015
Loading
Personal Weather Stations






























Interactive Weather Map New forecast layout! Learn more

10-Day Weather Forecast

Advertisements
Track Severe Weather on mobile